Main page
METAR-TAF:

METAR-TAF

Airports :

Jerez de la Frontera, Spain

Jerez Airport

latitude: 36-45N, longitude: 006-04W, elevation: 27 m

Current weather observation

The report was made 23 minutes ago, at 03:30 UTC
Wind 1 kt from the South/Southwest
Temperature 15°C
Humidity 82%
Pressure 1019 hPa
Visibility 10 km or more
no clouds below 1500 m and no cumulonimbus

METAR: LEJR 200330Z 20001KT CAVOK 15/12 Q1019

Time: 05:53 (03:53 UTC)

Forecast

The report was made 4 hours and 53 minutes ago, at 23:00 UTC
Forecast valid from 20 at 00 UTC to 20 at 24 UTC
Wind 2 kt from variable directions
Visibility 10 km or more
no clouds below 1500 m and no cumulonimbus
Becoming
from 20 at 12 UTC to 20 at 15 UTC
Wind 10 kt from the South
Becoming
from 20 at 18 UTC to 20 at 21 UTC
Wind 2 kt from variable directions

TAF: LEJR 192300Z 2000/2024 VRB02KT CAVOK TX32/2014Z TN12/2006Z BECMG 2012/2015 19010KT BECMG 2018/2021 VRB02KT

Weather observations and forecasts of more than 4000 airports (METAR and TAF reports).

The available stations are represented by yellow and red dots on the map.

Hover mouse over dot to see the name of the station.

Then click to see weather observations and forecasts.

To change the map : click on the green buttons with a black cross to zoom in, on the green button with a dash to zoom out, or on the green arrows for adjacent maps.


METAR-TAF: